Time;durP1;ratioP1;P1;durP2;ratioP2;P2;SDS_P1;SDS_P2;PMS_P1;PMS_P2;Temp;Humidity;BMP_temperature;BMP_pressure;BME280_temperature;BME280_humidity;BME280_pressure;Samples;Min_cycle;Max_cycle;Signal;HPM_P1;HPM_P2
2023/09/10 05:21:14;;;;;;;39.55;35.42;;;19.00;99.90;;;;;;6223870;23;20023;-95
2023/09/10 05:23:57;;;;;;;39.60;35.60;;;19.00;99.90;;;;;;6190577;23;20019;-95
2023/09/10 05:26:34;;;;;;;41.15;36.85;;;19.00;99.90;;;;;;6199603;23;20030;-95
2023/09/10 05:29:01;;;;;;;39.67;35.45;;;19.00;99.90;;;;;;6200000;23;20027;-95
2023/09/10 05:31:40;;;;;;;;;;;;;;;;;;;;;
2023/09/10 05:34:16;;;;;;;40.78;36.50;;;19.00;99.90;;;;;;6224636;23;20031;-94
2023/09/10 05:37:03;;;;;;;40.05;36.05;;;19.00;99.90;;;;;;6204409;23;20142;-94
2023/09/10 05:39:34;;;;;;;40.00;35.80;;;19.00;99.90;;;;;;6176382;23;20020;-94
2023/09/10 05:43:35;;;;;;;39.97;35.42;;;19.00;99.90;;;;;;6100884;23;20094;-96
2023/09/10 05:46:06;;;;;;;41.33;36.85;;;19.00;99.90;;;;;;6077267;23;20011;-95
2023/09/10 05:48:50;;;;;;;;;;;19.00;99.90;;;;;;6180521;23;20034;-94
2023/09/10 05:51:33;;;;;;;37.35;33.38;;;19.00;99.90;;;;;;6225834;23;19907;-94
2023/09/10 05:58:49;;;;;;;37.75;33.90;;;19.00;99.90;;;;;;6094472;23;20092;-95
2023/09/10 06:09:52;;;;;;;37.75;33.92;;;19.10;99.90;;;;;;6097787;23;20006;-95
2023/09/10 06:12:34;;;;;;;39.95;35.63;;;19.20;99.90;;;;;;6105321;23;20144;-95
2023/09/10 06:16:01;;;;;;;34.60;31.10;;;19.20;99.90;;;;;;6094549;23;20025;-95
2023/09/10 06:19:14;;;;;;;38.20;34.25;;;19.20;99.90;;;;;;6093559;23;20021;-93
2023/09/10 06:21:44;;;;;;;39.05;33.33;;;19.20;99.90;;;;;;6175033;23;20016;-96
2023/09/10 06:32:12;;;;;;;37.90;33.85;;;19.30;99.90;;;;;;6243607;23;20017;-95
2023/09/10 06:34:38;;;;;;;39.70;35.00;;;19.30;99.90;;;;;;6198898;23;20015;-87
2023/09/10 06:37:05;;;;;;;37.70;33.70;;;19.40;99.90;;;;;;6222194;23;20008;-86
2023/09/10 06:39:39;;;;;;;38.50;34.53;;;19.40;99.90;;;;;;6197068;23;20429;-88
2023/09/10 06:42:11;;;;;;;38.30;34.30;;;19.50;99.90;;;;;;6196933;23;20016;-87
2023/09/10 06:44:45;;;;;;;38.17;33.97;;;19.50;99.90;;;;;;6198222;23;20023;-87
2023/09/10 06:47:11;;;;;;;38.33;34.35;;;19.60;99.90;;;;;;6221656;23;20400;-85
2023/09/10 06:49:38;;;;;;;38.40;34.50;;;19.60;99.90;;;;;;6197837;23;20000;-88
2023/09/10 06:52:08;;;;;;;39.03;35.13;;;19.70;99.90;;;;;;6201149;23;20015;-88
2023/09/10 06:54:34;;;;;;;37.33;33.08;;;19.70;99.90;;;;;;6249336;23;20132;-86
2023/09/10 06:57:03;;;;;;;35.47;31.73;;;19.80;99.90;;;;;;6196930;23;20046;-88
2023/09/10 06:59:29;;;;;;;35.63;32.03;;;19.80;99.90;;;;;;6194596;23;20020;-89
2023/09/10 07:02:01;;;;;;;36.28;32.45;;;19.90;99.90;;;;;;6216798;23;20022;-87
2023/09/10 07:04:47;;;;;;;35.92;32.33;;;19.90;99.90;;;;;;6224745;23;20354;-89
2023/09/10 07:07:15;;;;;;;34.90;31.15;;;20.00;99.90;;;;;;6197843;23;20102;-89
2023/09/10 07:09:42;;;;;;;37.92;34.05;;;20.00;99.90;;;;;;6197414;23;20032;-90
2023/09/10 07:12:10;;;;;;;36.28;32.67;;;20.10;99.90;;;;;;6198008;23;20040;-89
2023/09/10 07:14:49;;;;;;;;;;;;;;;;;;;;;
2023/09/10 07:17:18;;;;;;;36.38;32.70;;;20.20;99.90;;;;;;6221433;23;20031;-89
2023/09/10 07:20:40;;;;;;;34.47;31.17;;;20.30;99.90;;;;;;6195584;23;20107;-93
2023/09/10 07:23:35;;;;;;;35.28;31.50;;;20.30;99.90;;;;;;6200566;23;20321;-89
2023/09/10 07:26:10;;;;;;;33.50;29.75;;;20.40;99.90;;;;;;6196449;23;20325;-89
2023/09/10 07:28:37;;;;;;;33.50;30.10;;;20.40;99.90;;;;;;6197605;23;20263;-90
2023/09/10 07:31:13;;;;;;;34.42;31.02;;;20.40;99.90;;;;;;6198566;23;20032;-90
2023/09/10 07:33:59;;;;;;;;;;;;;;;;;;;;;
2023/09/10 07:36:44;;;;;;;36.35;31.80;;;20.60;99.90;;;;;;6200712;23;20400;-91
2023/09/10 07:39:20;;;;;;;34.85;31.25;;;20.70;99.90;;;;;;6197074;23;20026;-90
2023/09/10 07:41:57;;;;;;;32.97;29.58;;;20.70;99.90;;;;;;6222546;23;20034;-89
2023/09/10 07:44:33;;;;;;;32.28;29.02;;;20.80;99.90;;;;;;6197594;23;20011;-88
2023/09/10 07:47:02;;;;;;;35.67;31.85;;;20.80;99.90;;;;;;6221415;23;20095;-90
2023/09/10 07:49:32;;;;;;;34.75;31.20;;;20.90;99.90;;;;;;6197002;23;20106;-89
2023/09/10 07:52:00;;;;;;;34.08;30.73;;;20.90;99.90;;;;;;6221622;23;20243;-90
2023/09/10 07:54:27;;;;;;;35.20;31.60;;;21.00;99.90;;;;;;6196243;23;20370;-90
2023/09/10 07:56:55;;;;;;;33.92;30.40;;;21.10;99.90;;;;;;6196785;23;20016;-90
2023/09/10 08:58:51;;;;;;;21.92;17.10;;;23.40;99.90;;;;;;6283745;22;20073;-94
2023/09/10 09:02:06;;;;;;;20.85;15.40;;;23.60;99.90;;;;;;6161845;23;20020;-94
2023/09/10 09:07:54;;;;;;;18.98;15.05;;;23.80;99.90;;;;;;6195545;23;20016;-94
2023/09/10 09:11:25;;;;;;;17.95;14.85;;;23.90;99.90;;;;;;6194785;23;20019;-94
2023/09/10 09:14:16;;;;;;;21.85;16.75;;;24.00;99.90;;;;;;6172286;23;20008;-94
2023/09/10 09:17:00;;;;;;;20.60;16.80;;;24.10;99.90;;;;;;6175223;23;20379;-94
2023/09/10 09:23:47;;;;;;;20.42;16.48;;;24.30;99.90;;;;;;6175274;23;20008;-93
2023/09/10 09:26:47;;;;;;;17.98;15.18;;;24.40;99.90;;;;;;6195409;23;20015;-95
2023/09/10 09:29:54;;;;;;;16.75;14.93;;;24.50;99.90;;;;;;6127475;23;20008;-93
2023/09/10 09:32:51;;;;;;;20.15;15.15;;;24.70;99.90;;;;;;6173844;23;20004;-94
2023/09/10 09:35:47;;;;;;;16.10;13.00;;;24.90;99.90;;;;;;6181225;23;20063;-93
2023/09/10 09:38:45;;;;;;;18.40;13.68;;;24.90;99.90;;;;;;6170232;23;20016;-93
2023/09/10 09:41:54;;;;;;;17.15;11.95;;;25.10;99.90;;;;;;6184745;23;20047;-94
2023/09/10 09:45:09;;;;;;;19.00;11.98;;;25.20;99.90;;;;;;6167083;23;20027;-94
2023/09/10 09:48:36;;;;;;;;;;;;;;;;;;;;;
2023/09/10 09:51:34;;;;;;;;;;;;;;;;;;;;;
2023/09/10 09:54:31;;;;;;;19.65;11.93;;;25.60;99.90;;;;;;6181061;23;20008;-92
2023/09/10 09:57:27;;;;;;;13.95;10.50;;;25.70;99.90;;;;;;6150802;23;20027;-93
2023/09/10 10:00:40;;;;;;;;;;;;;;;;;;;;;
2023/09/10 10:03:16;;;;;;;15.85;9.98;;;25.90;99.90;;;;;;6149364;23;20009;-94
2023/09/10 10:06:17;;;;;;;13.55;10.20;;;25.90;99.90;;;;;;6169319;23;20049;-94
2023/09/10 10:08:57;;;;;;;16.50;9.73;;;26.00;99.90;;;;;;6145801;23;20064;-94
2023/09/10 10:11:50;;;;;;;14.93;8.90;;;26.10;99.90;;;;;;6170509;23;20035;-94
2023/09/10 10:14:50;;;;;;;;;;;;;;;;;;;;;
2023/09/10 10:17:48;;;;;;;11.18;8.50;;;26.30;99.90;;;;;;6176127;23;20008;-95
2023/09/10 10:20:37;;;;;;;;;;;;;;;;;;;;;
2023/09/10 10:23:09;;;;;;;12.63;9.05;;;26.40;99.90;;;;;;6194421;23;20005;-94
2023/09/10 10:26:04;;;;;;;13.35;8.52;;;26.50;99.90;;;;;;6170160;23;20008;-94
2023/09/10 10:28:52;;;;;;;;;;;;;;;;;;;;;
2023/09/10 10:32:07;;;;;;;11.65;7.97;;;26.50;99.90;;;;;;6173032;23;20001;-94
2023/09/10 10:38:21;;;;;;;16.45;8.77;;;26.70;99.90;;;;;;6194292;23;20009;-92
2023/09/10 10:41:10;;;;;;;13.70;7.40;;;26.70;99.90;;;;;;6168867;23;20063;-94
2023/09/10 10:44:10;;;;;;;13.05;7.45;;;26.80;99.90;;;;;;6171062;23;20045;-93
2023/09/10 10:47:30;;;;;;;16.67;8.15;;;26.90;99.90;;;;;;6193789;23;20087;-94
2023/09/10 10:50:38;;;;;;;12.68;7.70;;;27.00;99.90;;;;;;6148443;23;20087;-92
2023/09/10 10:53:46;;;;;;;14.93;8.00;;;27.00;99.90;;;;;;6192587;23;20385;-94
2023/09/10 10:56:27;;;;;;;18.90;7.45;;;27.10;99.90;;;;;;6151224;23;20070;-94
2023/09/10 10:59:11;;;;;;;12.02;7.65;;;27.10;99.90;;;;;;6170307;22;20079;-94
2023/09/10 11:02:21;;;;;;;14.23;8.10;;;27.20;99.90;;;;;;6171556;23;20027;-94
2023/09/10 11:05:16;;;;;;;14.68;8.25;;;27.30;99.90;;;;;;6158381;23;20036;-94
2023/09/10 11:08:16;;;;;;;16.48;8.40;;;27.40;99.90;;;;;;6146810;23;20075;-94
2023/09/10 11:11:15;;;;;;;13.10;8.35;;;27.40;99.90;;;;;;6175418;23;20306;-93
2023/09/10 11:19:00;;;;;;;17.80;8.30;;;27.50;99.90;;;;;;6193221;23;20009;-94
2023/09/10 11:22:18;;;;;;;12.15;7.93;;;27.50;99.90;;;;;;6082332;23;20152;-94
2023/09/10 11:25:07;;;;;;;17.60;7.00;;;27.50;99.90;;;;;;6038667;23;20022;-95
2023/09/10 11:27:42;;;;;;;16.73;7.22;;;27.60;99.90;;;;;;6188905;23;20009;-94
2023/09/10 11:31:12;;;;;;;13.70;7.78;;;27.60;99.90;;;;;;6155618;23;20088;-94
2023/09/10 11:33:57;;;;;;;12.18;7.22;;;27.60;99.90;;;;;;6166457;23;20012;-94
2023/09/10 11:37:03;;;;;;;;;;;;;;;;;;;;;
2023/09/10 11:40:11;;;;;;;;;;;;;;;;;;;;;
2023/09/10 11:43:05;;;;;;;13.18;7.72;;;27.70;99.90;;;;;;6175063;23;20017;-93
2023/09/10 11:45:52;;;;;;;16.13;8.43;;;27.80;99.90;;;;;;6170524;23;20351;-94
2023/09/10 11:48:28;;;;;;;13.55;7.72;;;27.80;99.90;;;;;;6144322;23;20043;-94
2023/09/10 11:51:14;;;;;;;;;;;;;;;;;;;;;
2023/09/10 11:54:18;;;;;;;;;;;;;;;;;;;;;
2023/09/10 12:00:32;;;;;;;19.13;7.53;;;28.00;99.90;;;;;;6156439;23;20059;-94
2023/09/10 12:03:23;;;;;;;16.75;7.28;;;28.00;99.90;;;;;;6147027;23;20012;-93
2023/09/10 12:06:32;;;;;;;;;;;;;;;;;;;;;
2023/09/10 12:09:19;;;;;;;13.40;7.00;;;28.00;99.90;;;;;;6170161;23;20015;-93
2023/09/10 12:13:02;;;;;;;17.92;7.03;;;28.10;99.90;;;;;;6162442;23;20126;-93
2023/09/10 12:15:48;;;;;;;19.75;7.03;;;28.10;99.90;;;;;;6150760;23;20028;-94
2023/09/10 12:18:26;;;;;;;15.05;6.68;;;28.10;99.90;;;;;;6169099;23;20359;-95
2023/09/10 12:24:12;;;;;;;15.38;6.55;;;28.10;99.90;;;;;;6169603;23;19908;-94
2023/09/10 12:27:19;;;;;;;14.68;6.90;;;28.20;99.90;;;;;;6152042;23;20008;-94
2023/09/10 12:30:45;;;;;;;15.70;7.10;;;28.30;99.90;;;;;;6164910;23;20091;-94
2023/09/10 12:34:30;;;;;;;17.63;7.28;;;28.30;99.90;;;;;;6146357;23;20009;-95
2023/09/10 12:37:25;;;;;;;;;;;;;;;;;;;;;
2023/09/10 12:40:05;;;;;;;20.02;6.63;;;28.30;99.90;;;;;;6170909;23;20310;-94
2023/09/10 12:42:50;;;;;;;17.40;7.37;;;28.30;99.90;;;;;;6147183;23;20012;-94
2023/09/10 12:45:44;;;;;;;20.08;7.13;;;28.40;99.90;;;;;;6193517;23;20025;-94
2023/09/10 12:48:56;;;;;;;19.30;7.03;;;28.40;99.90;;;;;;6168265;23;20310;-94
2023/09/10 12:51:52;;;;;;;20.42;7.28;;;28.50;99.90;;;;;;6153170;23;20005;-94
2023/09/10 12:55:08;;;;;;;17.63;6.60;;;28.50;99.90;;;;;;6150935;23;20005;-94
2023/09/10 12:58:10;;;;;;;21.52;7.18;;;28.50;99.90;;;;;;6175313;23;20036;-94
2023/09/10 13:01:22;;;;;;;;;;;;;;;;;;;;;
2023/09/10 13:04:01;;;;;;;16.42;6.60;;;28.50;99.90;;;;;;6201056;23;19997;-94
2023/09/10 13:06:41;;;;;;;17.25;7.18;;;28.60;99.90;;;;;;6201172;23;20396;-94
2023/09/10 13:09:55;;;;;;;16.67;6.53;;;28.60;99.90;;;;;;6202650;23;20022;-94
2023/09/10 13:13:39;;;;;;;18.08;7.03;;;28.60;99.90;;;;;;6200190;23;20439;-94
2023/09/10 13:17:06;;;;;;;21.88;6.55;;;28.60;99.90;;;;;;6208872;23;20034;-94
2023/09/10 13:19:59;;;;;;;;;;;;;;;;;;;;;
2023/09/10 13:22:55;;;;;;;17.75;6.18;;;28.70;99.90;;;;;;6150533;23;20027;-94
2023/09/10 13:25:46;;;;;;;13.43;6.70;;;28.70;99.90;;;;;;6202555;23;20011;-94
2023/09/10 13:28:43;;;;;;;14.25;6.63;;;28.80;99.90;;;;;;6203784;23;20235;-94
2023/09/10 13:32:01;;;;;;;;;;;;;;;;;;;;;
2023/09/10 13:35:12;;;;;;;17.60;6.60;;;28.80;99.90;;;;;;6200840;23;20004;-94
2023/09/10 13:38:16;;;;;;;20.67;6.88;;;28.80;99.90;;;;;;6172500;23;20062;-93
2023/09/10 13:41:27;;;;;;;23.23;6.90;;;28.80;99.90;;;;;;6187957;23;20400;-94
2023/09/10 13:44:05;;;;;;;19.80;6.07;;;28.90;99.90;;;;;;6181956;23;20381;-94
2023/09/10 13:46:58;;;;;;;17.13;7.00;;;28.90;99.90;;;;;;6200120;23;20040;-94
2023/09/10 13:50:11;;;;;;;15.07;6.25;;;28.90;99.90;;;;;;6207945;23;20361;-94
2023/09/10 13:53:26;;;;;;;;;;;;;;;;;;;;;
2023/09/10 13:56:49;;;;;;;22.00;7.43;;;28.90;99.90;;;;;;6201207;23;20366;-95
2023/09/10 14:00:02;;;;;;;;;;;;;;;;;;;;;
2023/09/10 14:03:02;;;;;;;21.48;6.93;;;28.90;99.90;;;;;;6199109;23;20031;-95
2023/09/10 14:06:01;;;;;;;15.45;6.25;;;28.90;99.90;;;;;;6205012;23;20028;-94
2023/09/10 14:12:45;;;;;;;;;;;;;;;;;;;;;
2023/09/10 14:15:19;;;;;;;19.20;7.63;;;29.10;99.90;;;;;;6201900;23;20012;-94
2023/09/10 14:18:39;;;;;;;;;;;;;;;;;;;;;
2023/09/10 14:21:30;;;;;;;;;;;;;;;;;;;;;
2023/09/10 14:24:24;;;;;;;17.75;6.82;;;29.30;99.90;;;;;;6199903;23;20095;-95
2023/09/10 14:27:41;;;;;;;20.63;6.60;;;29.30;99.90;;;;;;6190202;23;20027;-94
2023/09/10 14:30:25;;;;;;;16.30;7.07;;;29.30;99.90;;;;;;6226928;23;20323;-95
2023/09/10 14:34:18;;;;;;;;;;;;;;;;;;;;;
2023/09/10 14:37:03;;;;;;;16.30;6.80;;;29.40;99.90;;;;;;6200808;23;20000;-95
2023/09/10 14:40:19;;;;;;;;;;;;;;;;;;;;;
2023/09/10 14:42:59;;;;;;;22.85;8.60;;;29.50;99.90;;;;;;6224356;23;20441;-94
2023/09/10 14:45:45;;;;;;;;;;;;;;;;;;;;;
2023/09/10 14:48:50;;;;;;;;;;;;;;;;;;;;;
2023/09/10 14:51:29;;;;;;;19.85;7.15;;;29.50;99.90;;;;;;6199550;23;20000;-94
2023/09/10 14:54:58;;;;;;;;;;;;;;;;;;;;;
2023/09/10 14:58:10;;;;;;;18.17;6.70;;;29.40;99.90;;;;;;6173996;23;20035;-95
2023/09/10 15:01:12;;;;;;;;;;;;;;;;;;;;;
2023/09/10 15:04:07;;;;;;;18.88;6.38;;;29.40;99.90;;;;;;6182918;23;20252;-94
2023/09/10 15:07:40;;;;;;;16.83;6.65;;;29.40;99.90;;;;;;6194060;23;20038;-93
2023/09/10 15:11:10;;;;;;;;;;;;;;;;;;;;;
2023/09/10 15:13:46;;;;;;;18.40;6.97;;;29.50;99.90;;;;;;6159352;23;20027;-94
2023/09/10 15:16:53;;;;;;;;;;;;;;;;;;;;;
2023/09/10 15:19:48;;;;;;;20.10;7.57;;;29.50;99.90;;;;;;6199758;23;20027;-95
2023/09/10 15:22:42;;;;;;;;;;;;;;;;;;;;;
2023/09/10 15:25:49;;;;;;;;;;;;;;;;;;;;;
2023/09/10 15:29:08;;;;;;;;;;;;;;;;;;;;;
2023/09/10 15:31:55;;;;;;;15.63;6.55;;;29.60;99.90;;;;;;6202957;23;20005;-94
2023/09/10 15:34:44;;;;;;;;;;;;;;;;;;;;;
2023/09/10 15:38:05;;;;;;;18.67;6.57;;;29.60;99.90;;;;;;6181431;23;20090;-94
2023/09/10 15:40:40;;;;;;;17.92;7.00;;;29.60;99.80;;;;;;6200447;23;20004;-94
2023/09/10 15:43:40;;;;;;;20.88;6.60;;;29.60;99.90;;;;;;6199009;23;20015;-96
2023/09/10 15:46:15;;;;;;;19.35;7.13;;;29.60;99.90;;;;;;6154820;23;20016;-95
2023/09/10 15:48:51;;;;;;;18.58;7.60;;;29.60;99.90;;;;;;6199638;23;20000;-95
2023/09/10 15:51:23;;;;;;;27.42;6.72;;;29.60;99.90;;;;;;6176333;23;20031;-94
2023/09/10 15:54:51;;;;;;;;;;;;;;;;;;;;;
2023/09/10 15:58:25;;;;;;;21.25;6.93;;;29.70;99.80;;;;;;6181681;23;20064;-95
2023/09/10 16:20:05;;;;;;;;;;;;;;;;;;;;;
2023/09/10 18:05:14;;;;;;;24.52;8.77;;;27.20;99.90;;;;;;6224255;23;20057;-95
2023/09/10 18:08:35;;;;;;;21.27;8.25;;;27.10;99.90;;;;;;6194034;23;20017;-94
2023/09/10 18:17:42;;;;;;;;;;;26.80;99.90;;;;;;5004407;27;4055753;-91
2023/09/10 18:24:17;;;;;;;28.95;9.32;;;26.60;99.90;;;;;;5092952;28;20059;-94
2023/09/10 18:27:52;;;;;;;18.58;8.77;;;26.40;99.90;;;;;;5118143;28;20084;-93
2023/09/10 21:31:49;;;;;;;29.15;10.98;;;23.20;99.90;;;;;;5019253;28;20038;-93
2023/09/10 21:40:33;;;;;;;30.98;11.02;;;23.10;99.90;;;;;;5059804;28;20047;-94
2023/09/10 21:47:57;;;;;;;;;;;;;;;;;;;;;
